Aérodrome :
LOGIN :

S'inscrire | Disclaimer

   EN    FR    IT 

 










Légende :    VFR   VFR Marginal   IFR   IFR Intensif   IFR Très Intensif
Visi : 
Plafond : 
>= 8 km
>= 3000ft
5 à 8 km
1000 à 3000 ft
1500m à 5 km
500 à 1000 ft
800 à 1500m
200 à 500 ft
< 800m
< 200 ft
Symboles :   Orages  Brouillard  Fortes neiges  Fortes précipitations  Vent > 20 kt
SIGMETs :   Divers  Orages  Givrage  Turbulence  Onde Orograph.  Cendres Volcan.






- Altitude de l'aérodrome : 83 ft
- Code IATA : LHR


EGLL - London Heathrow

DERNIER METAR :
  • 211120Z AUTO 19004KT 170V310 7000 NCD 04/03 Q1042

METARs EXPIRÉS :
  • 211050Z AUTO 19005KT 140V270 8000 NCD 03/02 Q1043 NOSIG
  • 211020Z AUTO 25004KT 200V290 6000 NCD 03/02 Q1043
  • 210950Z AUTO 27003KT 5000 BR SCT018 02/01 Q1043 NOSIG
  • 210920Z AUTO VRB03KT 6000 BKN017 01/01 Q1043
  • 210850Z AUTO 30004KT 6000 BKN018 00/M00 Q1043 TEMPO 4000 BR

TAF TAF EGLL
Valide du 21 à 06h jusqu'au 22 à 12h UTC


210503Z 2106/2212 VRB03KT 5000 BR NSC
TEMPO 2106/2112 2000
PROB40 2106/2110 0200 FZFG VV///
PROB40
TEMPO 2110/2112 BKN003
BECMG 2112/2115 CAVOK
BECMG 2117/2120 6000
TEMPO 2120/2202 3000 BR BKN008
BECMG 2202/2205 2500 BR BKN006
TEMPO 2202/2212 BKN002
PROB30
TEMPO 2202/2211 0300 FG BKN000



MET'MAP, la Météo Aéronautique d'un coup d'oeil ! - Copyright ORBIFLY Décembre 2007 - Disclaimer

ORBIFLY MET'MAP TEAM :

Programmation & Développement : Alexandra Zaïnal
Sur une idée originale de : Baudouin d'Aumeries
Assistance à la programmation : Marc-Olivier Méhu
Soutien technique & logistique : Manuel Goepfert

Contact : metmap@orbifly.com




SOURCES & CREDITS :

   NOAA